HRGA4: Little River, Horatio, AR

Data processed at Fri Jan 05 2018 23:10


All information presented herein is the property of the government of the United States of America and may be revised or deleted at any time without prior notice.
Dissemination of this information without the expressed written consent of the Public Affairs Office, Tulsa District U.S. Army Corps of Engineers is strictly prohibited.
These data are gathered electronically and, as presented, have not undergone any form of quality control. These data are not guaranteed to be valid or correct.
Go to home page.
Go to station list.

Upstream stations:

Downstream station:
Previous Day
Next Day
Current Day
    
SHEF ID:       HRGA4     Little River near Horatio, AR
STATION TYPE:  

               PRECIP     STAGE  RIV-FLOW  BAT-LOAD
                   in        ft       cfs      volt
              Ccp-Rev   Ccp-Rev   Ccp-Rev   Ccp-Rev
(US/Central)
01/03 00:00      0.00      6.45      1276     12.89
01/03 01:00      0.00      6.63      1390     12.81
01/03 02:00      0.00      6.74      1460     12.81
01/03 03:00      0.00      6.77      1480     12.81
01/03 04:00      0.00      6.75      1467     12.81
01/03 05:00      0.00      6.71      1441     12.81
01/03 06:00      0.00      6.65      1402     12.73
01/03 07:00      0.00      6.57      1352     12.73
01/03 08:00      0.00      6.47      1288     12.73
01/03 09:00      0.00      6.39      1238     12.73
01/03 10:00      0.00      6.29      1176     12.81
01/03 11:00      0.00      6.18      1108     13.44
01/03 12:00      0.00      6.05      1029     13.92
01/03 13:00      0.00      5.94       963     13.92
01/03 14:00      0.00      5.93       957     13.84
01/03 15:00      0.00      5.85       910     13.84
01/03 16:00      0.00      5.78       868     13.76
01/03 17:00      0.00      5.71       828     13.68
01/03 18:00      0.00      5.63       781     13.29
01/03 19:00      0.00      5.59       758     13.05
01/03 20:00      0.00      5.64       787     13.05
01/03 21:00      0.00      5.86       916     13.05
01/03 22:00      0.00      6.17      1102     12.97
01/03 23:00      0.00      6.43      1263     12.97